createdAt,value
2022-09-28T00:01:16.145Z,98257.93
2022-09-28T00:03:49.112Z,98256.86
2022-09-28T00:06:23.457Z,98255.64
2022-09-28T00:08:56.002Z,98257.14
2022-09-28T00:11:29.247Z,98259.53
2022-09-28T00:14:03.822Z,98256.25
2022-09-28T00:16:42.116Z,98260.62
2022-09-28T00:19:14.897Z,98261.97
2022-09-28T00:21:48.145Z,98259.27
2022-09-28T00:24:24.040Z,98254.21
2022-09-28T00:27:01.660Z,98253.81
2022-09-28T00:29:35.597Z,98254.61
2022-09-28T00:32:11.741Z,98260.85
2022-09-28T00:34:46.947Z,98259.26
2022-09-28T00:37:20.106Z,98254.88
2022-09-28T00:39:52.094Z,98261.04
2022-09-28T00:42:26.410Z,98263.60
2022-09-28T00:44:59.187Z,98263.83
2022-09-28T00:47:53.250Z,98267.35
2022-09-28T00:50:31.467Z,98269.97
2022-09-28T00:53:06.393Z,98269.84
2022-09-28T00:55:43.071Z,98273.39
2022-09-28T00:58:18.497Z,98270.67
2022-09-28T01:00:51.130Z,98275.04
2022-09-28T01:03:23.276Z,98275.42
2022-09-28T01:05:57.425Z,98275.49
2022-09-28T01:08:31.217Z,98271.20
2022-09-28T01:11:04.324Z,98270.20
2022-09-28T01:13:36.650Z,98270.13
2022-09-28T01:16:20.617Z,98266.55
2022-09-28T01:19:02.827Z,98265.89
2022-09-28T01:21:49.937Z,98261.13
2022-09-28T01:24:40.689Z,98258.30
2022-09-28T01:27:20.721Z,98255.20
2022-09-28T01:30:02.786Z,98253.60
2022-09-28T01:32:42.555Z,98249.92
2022-09-28T01:35:18.463Z,98244.89
2022-09-28T01:37:54.207Z,98244.27
2022-09-28T01:40:28.580Z,98244.91
2022-09-28T01:43:05.563Z,98246.02
2022-09-28T01:45:43.264Z,98240.64
2022-09-28T01:48:20.824Z,98237.52
2022-09-28T01:50:54.732Z,98236.48
2022-09-28T01:53:33.269Z,98230.55
2022-09-28T01:56:12.616Z,98231.87
2022-09-28T01:58:49.798Z,98235.59
2022-09-28T02:01:26.355Z,98234.77
2022-09-28T02:04:04.991Z,98238.80
2022-09-28T02:06:42.025Z,98239.11
2022-09-28T02:09:20.276Z,98243.95
2022-09-28T02:11:59.118Z,98245.39
2022-09-28T02:14:32.781Z,98246.61
2022-09-28T02:17:06.783Z,98249.52
2022-09-28T02:19:40.537Z,98250.95
2022-09-28T02:22:23.501Z,98250.33
2022-09-28T02:25:00.420Z,98251.84
2022-09-28T02:27:35.908Z,98243.23
2022-09-28T02:30:11.403Z,98246.96
2022-09-28T02:32:48.082Z,98243.98
2022-09-28T02:35:19.572Z,98243.43
2022-09-28T02:37:52.111Z,98247.06
2022-09-28T02:40:30.173Z,98245.17
2022-09-28T02:43:11.698Z,98246.95
2022-09-28T02:45:58.568Z,98241.38
2022-09-28T02:49:00.235Z,98238.54
2022-09-28T02:51:47.764Z,98238.02
2022-09-28T02:54:31.403Z,98241.48
2022-09-28T02:57:13.236Z,98239.36
2022-09-28T02:59:55.498Z,98241.31
2022-09-28T03:02:33.708Z,98238.85
2022-09-28T03:05:20.655Z,98242.09
2022-09-28T03:08:00.244Z,98242.52
2022-09-28T03:10:38.772Z,98239.96
2022-09-28T03:13:12.437Z,98241.00
2022-09-28T03:15:48.646Z,98240.70
2022-09-28T03:18:22.400Z,98239.89
2022-09-28T03:20:54.408Z,98241.80
2022-09-28T03:23:26.749Z,98240.66
2022-09-28T03:25:58.648Z,98240.51
2022-09-28T03:28:30.836Z,98239.72
2022-09-28T03:31:03.901Z,98241.45
2022-09-28T03:33:36.050Z,98242.10
2022-09-28T03:36:09.648Z,98241.17
2022-09-28T03:38:41.793Z,98243.40
2022-09-28T03:41:13.728Z,98244.73
2022-09-28T03:43:47.202Z,98241.96
2022-09-28T03:46:19.479Z,98239.84
2022-09-28T03:48:57.733Z,98237.85
2022-09-28T03:51:29.708Z,98236.13
2022-09-28T03:54:01.627Z,98239.36
2022-09-28T03:56:33.571Z,98239.92
2022-09-28T03:59:06.655Z,98240.11
2022-09-28T04:01:38.813Z,98244.31
2022-09-28T04:04:14.760Z,98244.08
2022-09-28T04:06:46.889Z,98248.73
2022-09-28T04:09:18.872Z,98248.66
2022-09-28T04:12:03.281Z,98247.80
2022-09-28T04:14:36.411Z,98246.72
2022-09-28T04:17:08.857Z,98250.66
2022-09-28T04:19:41.491Z,98252.00
2022-09-28T04:22:45.429Z,98252.50
2022-09-28T04:25:17.322Z,98259.79
2022-09-28T04:28:07.555Z,98264.58
2022-09-28T04:30:39.824Z,98253.70
2022-09-28T04:33:11.804Z,98250.40
2022-09-28T04:35:43.736Z,98251.30
2022-09-28T04:38:20.679Z,98250.04
2022-09-28T04:41:02.937Z,98247.48
2022-09-28T04:43:34.932Z,98244.23
2022-09-28T04:46:07.429Z,98250.22
2022-09-28T04:48:47.283Z,98249.29
2022-09-28T04:51:38.073Z,98252.93
2022-09-28T04:54:10.290Z,98253.03
2022-09-28T04:56:42.368Z,98259.16
2022-09-28T04:59:14.695Z,98260.50
2022-09-28T05:01:47.577Z,98251.14
2022-09-28T05:04:34.517Z,98257.30
2022-09-28T05:07:25.262Z,98259.03
2022-09-28T05:09:57.165Z,98260.86
2022-09-28T05:12:29.091Z,98260.90
2022-09-28T05:15:01.056Z,98261.91
2022-09-28T05:17:33.015Z,98262.08
2022-09-28T05:20:14.935Z,98258.38
2022-09-28T05:22:46.925Z,98265.08
2022-09-28T05:25:18.974Z,98268.37
2022-09-28T05:28:12.445Z,98264.79
2022-09-28T05:31:05.865Z,98267.23
2022-09-28T05:33:56.721Z,98276.27
2022-09-28T05:36:30.331Z,98278.19
2022-09-28T05:39:03.946Z,98271.02
2022-09-28T05:41:36.729Z,98269.71
2022-09-28T05:44:08.582Z,98267.55
2022-09-28T05:46:41.130Z,98273.06
2022-09-28T05:49:14.817Z,98272.60
2022-09-28T05:51:46.888Z,98272.52
2022-09-28T05:54:19.232Z,98279.17
2022-09-28T05:56:51.884Z,98283.05
2022-09-28T05:59:23.847Z,98286.19
2022-09-28T06:01:55.808Z,98291.14
2022-09-28T06:04:27.960Z,98290.46
2022-09-28T06:07:00.101Z,98291.95
2022-09-28T06:09:32.779Z,98293.28
2022-09-28T06:12:07.715Z,98294.86
2022-09-28T06:14:48.748Z,98299.05
2022-09-28T06:17:20.782Z,98299.23
2022-09-28T06:20:00.798Z,98297.73
2022-09-28T06:22:55.504Z,98294.98
2022-09-28T06:25:28.557Z,98295.71
2022-09-28T06:28:07.200Z,98296.95
2022-09-28T06:30:39.680Z,98303.30
2022-09-28T06:33:16.435Z,98301.72
2022-09-28T06:35:48.382Z,98304.81
2022-09-28T06:38:20.558Z,98304.30
2022-09-28T06:40:53.764Z,98300.05
2022-09-28T06:43:25.772Z,98298.41
2022-09-28T06:46:21.070Z,98295.21
2022-09-28T06:49:18.629Z,98299.24
2022-09-28T06:52:11.975Z,98298.94
2022-09-28T06:55:02.422Z,98297.16
2022-09-28T06:57:43.594Z,98297.50
2022-09-28T07:00:17.560Z,98298.70
2022-09-28T07:02:51.279Z,98301.64
2022-09-28T07:05:54.173Z,98307.90
2022-09-28T07:08:46.178Z,98312.30
2022-09-28T07:11:44.807Z,98316.17
2022-09-28T07:14:44.257Z,98316.23
2022-09-28T07:17:19.642Z,98318.91
2022-09-28T07:19:53.678Z,98323.57
2022-09-28T07:22:41.276Z,98323.16
2022-09-28T07:25:16.472Z,98323.48
2022-09-28T07:27:52.920Z,98326.06
2022-09-28T07:30:48.556Z,98321.14
2022-09-28T07:33:43.655Z,98319.47
2022-09-28T07:36:22.873Z,98318.06
2022-09-28T07:38:56.189Z,98322.79
2022-09-28T07:41:33.400Z,98327.05
2022-09-28T07:44:07.714Z,98326.27
2022-09-28T07:46:41.238Z,98327.19
2022-09-28T07:49:25.080Z,98327.92
2022-09-28T07:52:09.843Z,98334.14
2022-09-28T07:55:12.115Z,98335.07
2022-09-28T07:58:03.180Z,98339.36
2022-09-28T08:00:51.937Z,98342.35
2022-09-28T08:03:24.794Z,98345.02
2022-09-28T08:06:01.770Z,98346.72
2022-09-28T08:08:36.610Z,98347.49
2022-09-28T08:11:10.614Z,98349.77
2022-09-28T08:14:08.636Z,98352.41
2022-09-28T08:16:59.540Z,98355.66
2022-09-28T08:20:06.805Z,98356.46
2022-09-28T08:22:40.368Z,98356.15
2022-09-28T08:25:12.788Z,98363.39
2022-09-28T08:27:44.589Z,98362.32
2022-09-28T08:30:16.843Z,98363.09
2022-09-28T08:33:07.973Z,98359.11
2022-09-28T08:36:05.243Z,98361.98
2022-09-28T08:39:00.206Z,98356.48
2022-09-28T08:41:56.956Z,98352.83
2022-09-28T08:44:50.888Z,98354.04
2022-09-28T08:48:14.992Z,98355.74
2022-09-28T08:51:07.361Z,98357.91
2022-09-28T08:53:57.011Z,98359.91
2022-09-28T08:56:39.991Z,98360.70
2022-09-28T08:59:17.516Z,98361.85
2022-09-28T09:01:58.027Z,98360.57
2022-09-28T09:04:31.368Z,98359.72
2022-09-28T09:07:45.881Z,98353.67
2022-09-28T09:10:36.652Z,98356.45
2022-09-28T09:13:27.059Z,98355.72
2022-09-28T09:16:05.757Z,98357.73
2022-09-28T09:19:06.232Z,98346.44
2022-09-28T09:22:01.649Z,98350.25
2022-09-28T09:24:44.077Z,98351.02
2022-09-28T09:27:39.327Z,98345.96
2022-09-28T09:30:19.216Z,98348.48
2022-09-28T09:33:28.219Z,98348.78
2022-09-28T09:36:54.209Z,98351.09
2022-09-28T09:40:16.640Z,98350.89
2022-09-28T09:43:16.189Z,98352.63
2022-09-28T09:46:16.121Z,98348.33
2022-09-28T09:49:16.550Z,98349.67
2022-09-28T09:51:56.098Z,98351.42
2022-09-28T09:54:31.683Z,98353.91
2022-09-28T09:57:09.140Z,98355.44
2022-09-28T09:59:53.817Z,98361.02
2022-09-28T10:02:34.221Z,98360.89
2022-09-28T10:05:21.994Z,98359.52
2022-09-28T10:08:01.494Z,98368.85
2022-09-28T10:10:37.492Z,98364.11
2022-09-28T10:13:14.795Z,98370.27
2022-09-28T10:15:50.603Z,98369.71
2022-09-28T10:18:30.345Z,98370.37
2022-09-28T10:21:32.551Z,98378.64
2022-09-28T10:24:19.004Z,98380.33
2022-09-28T10:26:55.759Z,98378.33
2022-09-28T10:29:27.142Z,98375.69
2022-09-28T10:31:59.247Z,98375.57
2022-09-28T10:34:35.694Z,98377.10
2022-09-28T10:37:14.259Z,98378.89
2022-09-28T10:40:28.323Z,98377.55
2022-09-28T10:43:06.180Z,98373.33
2022-09-28T10:45:40.359Z,98376.00
2022-09-28T10:48:20.717Z,98375.58
2022-09-28T10:51:06.705Z,98383.41
2022-09-28T10:53:40.186Z,98380.89
2022-09-28T10:56:28.593Z,98384.43
2022-09-28T10:59:26.440Z,98385.97
2022-09-28T11:02:02.546Z,98386.27
2022-09-28T11:04:41.357Z,98384.80
2022-09-28T11:07:20.639Z,98386.31
2022-09-28T11:09:54.657Z,98377.62
2022-09-28T11:12:29.781Z,98373.69
2022-09-28T11:15:04.940Z,98367.79
2022-09-28T11:17:40.615Z,98369.15
2022-09-28T11:20:34.979Z,98364.98
2022-09-28T11:23:23.433Z,98371.63
2022-09-28T11:26:06.556Z,98370.94
2022-09-28T11:28:42.250Z,98368.44
2022-09-28T11:31:29.188Z,98368.52
2022-09-28T11:34:15.167Z,98373.73
2022-09-28T11:37:13.598Z,98373.02
2022-09-28T11:39:55.437Z,98375.09
2022-09-28T11:42:38.690Z,98371.88
2022-09-28T11:45:37.011Z,98370.03
2022-09-28T11:48:13.166Z,98372.79
2022-09-28T11:50:51.568Z,98377.20
2022-09-28T11:53:28.605Z,98377.41
2022-09-28T11:56:13.513Z,98379.77
2022-09-28T11:58:48.621Z,98383.89
2022-09-28T12:01:27.567Z,98384.59
2022-09-28T12:04:26.784Z,98387.23
2022-09-28T12:07:05.320Z,98389.03
2022-09-28T12:09:44.602Z,98393.38
2022-09-28T12:12:32.533Z,98393.92
2022-09-28T12:15:15.402Z,98390.92
2022-09-28T12:17:53.003Z,98391.96
2022-09-28T12:20:28.468Z,98395.73
2022-09-28T12:23:08.441Z,98397.07
2022-09-28T12:25:46.297Z,98401.17
2022-09-28T12:28:29.427Z,98403.04
2022-09-28T12:31:09.159Z,98399.55
2022-09-28T12:33:42.946Z,98396.14
2022-09-28T12:36:30.289Z,98392.52
2022-09-28T12:39:40.653Z,98395.56
2022-09-28T12:42:27.771Z,98393.17
2022-09-28T12:45:13.788Z,98390.26
2022-09-28T12:48:09.036Z,98386.64
2022-09-28T12:50:56.820Z,98384.20
2022-09-28T12:53:55.329Z,98384.29
2022-09-28T12:56:38.496Z,98384.00
2022-09-28T12:59:20.953Z,98386.64
2022-09-28T13:02:38.266Z,98386.38
2022-09-28T13:05:25.673Z,98382.39
2022-09-28T13:07:59.085Z,98383.44
2022-09-28T13:10:37.362Z,98388.14
2022-09-28T13:13:23.249Z,98381.73
2022-09-28T13:16:02.519Z,98373.88
2022-09-28T13:18:42.482Z,98372.95
2022-09-28T13:21:24.090Z,98371.27
2022-09-28T13:24:08.999Z,98366.52
2022-09-28T13:26:48.570Z,98366.02
2022-09-28T13:29:22.292Z,98365.55
2022-09-28T13:31:57.166Z,98366.11
2022-09-28T13:34:32.232Z,98367.65
2022-09-28T13:37:24.904Z,98361.04
2022-09-28T13:39:57.682Z,98363.34
2022-09-28T13:42:51.872Z,98359.89
2022-09-28T13:45:47.615Z,98356.59
2022-09-28T13:48:24.284Z,98361.73
2022-09-28T13:51:15.934Z,98363.05
2022-09-28T13:54:31.775Z,98369.05
2022-09-28T13:57:17.104Z,98364.57
2022-09-28T13:59:59.201Z,98364.40
2022-09-28T14:02:37.722Z,98361.58
2022-09-28T14:05:46.469Z,98358.13
2022-09-28T14:08:41.279Z,98357.16
2022-09-28T14:11:45.057Z,98355.64
2022-09-28T14:14:45.764Z,98354.55
2022-09-28T14:17:50.536Z,98359.39
2022-09-28T14:20:27.494Z,98358.71
2022-09-28T14:23:21.100Z,98363.75
2022-09-28T14:26:24.169Z,98366.02
2022-09-28T14:29:10.057Z,98365.23
2022-09-28T14:31:45.398Z,98361.61
2022-09-28T14:34:36.745Z,98359.19
2022-09-28T14:37:44.446Z,98360.60
2022-09-28T14:40:48.720Z,98364.37
2022-09-28T14:43:38.628Z,98366.20
2022-09-28T14:46:36.227Z,98365.23
2022-09-28T14:49:47.663Z,98364.41
2022-09-28T14:52:39.194Z,98363.01
2022-09-28T14:55:23.687Z,98363.53
2022-09-28T14:57:59.068Z,98364.11
2022-09-28T15:00:32.700Z,98370.26
2022-09-28T15:03:10.222Z,98370.27
2022-09-28T15:05:48.174Z,98370.48
2022-09-28T15:08:22.820Z,98370.34
2022-09-28T15:10:54.997Z,98370.45
2022-09-28T15:13:30.115Z,98368.33
2022-09-28T15:16:09.921Z,98371.61
2022-09-28T15:19:08.362Z,98371.21
2022-09-28T15:21:42.395Z,98379.26
2022-09-28T15:24:33.065Z,98385.91
2022-09-28T15:27:19.113Z,98385.55
2022-09-28T15:30:01.596Z,98379.58
2022-09-28T15:32:34.862Z,98378.54
2022-09-28T15:35:17.444Z,98372.73
2022-09-28T15:37:52.159Z,98366.39
2022-09-28T15:40:32.627Z,98363.60
2022-09-28T15:43:21.446Z,98368.81
2022-09-28T15:46:02.665Z,98370.02
2022-09-28T15:48:42.355Z,98368.25
2022-09-28T15:51:14.635Z,98364.31
2022-09-28T15:53:56.123Z,98356.98
2022-09-28T15:56:29.837Z,98353.46
2022-09-28T15:59:26.494Z,98358.08
2022-09-28T16:02:14.212Z,98365.54
2022-09-28T16:04:50.647Z,98372.54
2022-09-28T16:07:28.512Z,98375.83
2022-09-28T16:10:06.310Z,98373.95
2022-09-28T16:12:48.720Z,98376.88
2022-09-28T16:15:23.977Z,98376.34
2022-09-28T16:17:58.114Z,98366.26
2022-09-28T16:20:34.459Z,98368.32
2022-09-28T16:23:21.344Z,98361.54
2022-09-28T16:25:56.466Z,98351.59
2022-09-28T16:28:46.150Z,98350.55
2022-09-28T16:31:29.742Z,98352.73
2022-09-28T16:34:11.551Z,98356.37
2022-09-28T16:36:45.584Z,98358.04
2022-09-28T16:39:19.262Z,98359.42
2022-09-28T16:41:53.928Z,98359.42
2022-09-28T16:44:29.329Z,98352.15
2022-09-28T16:47:01.537Z,98350.39
2022-09-28T16:49:34.778Z,98348.15
2022-09-28T16:52:10.131Z,98349.52
2022-09-28T16:54:59.468Z,98349.88
2022-09-28T16:57:31.286Z,98352.27
2022-09-28T17:00:03.839Z,98365.27
2022-09-28T17:02:46.420Z,98372.53
2022-09-28T17:05:20.369Z,98367.96
2022-09-28T17:08:01.021Z,98355.70
2022-09-28T17:10:55.719Z,98344.61
2022-09-28T17:13:33.356Z,98348.06
2022-09-28T17:16:10.454Z,98346.25
2022-09-28T17:18:42.778Z,98343.89
2022-09-28T17:21:16.957Z,98337.61
2022-09-28T17:23:50.340Z,98339.16
2022-09-28T17:26:30.401Z,98341.41
2022-09-28T17:29:02.990Z,98342.79
2022-09-28T17:31:35.062Z,98342.52
2022-09-28T17:34:06.928Z,98345.33
2022-09-28T17:36:39.231Z,98345.36
2022-09-28T17:39:14.225Z,98350.87
2022-09-28T17:41:46.288Z,98358.73
2022-09-28T17:44:19.093Z,98365.00
2022-09-28T17:46:52.442Z,98370.31
2022-09-28T17:49:24.355Z,98371.36
2022-09-28T17:51:56.245Z,98372.23
2022-09-28T17:54:28.117Z,98371.09
2022-09-28T17:57:00.215Z,98372.05
2022-09-28T17:59:32.220Z,98371.47
2022-09-28T18:02:04.329Z,98372.98
2022-09-28T18:04:51.385Z,98380.23
2022-09-28T18:07:23.849Z,98385.20
2022-09-28T18:09:58.270Z,98393.29
2022-09-28T18:12:30.234Z,98396.24
2022-09-28T18:15:02.056Z,98400.32
2022-09-28T18:17:34.151Z,98406.25
2022-09-28T18:20:07.401Z,98413.73
2022-09-28T18:22:39.587Z,98418.23
2022-09-28T18:25:12.207Z,98426.71
2022-09-28T18:27:44.221Z,98432.63
2022-09-28T18:30:16.099Z,98434.59
2022-09-28T18:32:47.861Z,98439.52
2022-09-28T18:35:22.993Z,98440.66
2022-09-28T18:37:55.588Z,98451.75
2022-09-28T18:40:27.778Z,98455.70
2022-09-28T18:42:59.601Z,98452.09
2022-09-28T18:45:31.464Z,98453.73
2022-09-28T18:48:03.338Z,98458.06
2022-09-28T18:50:35.729Z,98461.06
2022-09-28T18:53:13.746Z,98464.20
2022-09-28T18:55:45.835Z,98467.80
2022-09-28T18:58:17.792Z,98469.23
2022-09-28T19:00:49.654Z,98468.08
2022-09-28T19:03:21.678Z,98473.70
2022-09-28T19:05:53.768Z,98468.48
2022-09-28T19:08:27.725Z,98467.81
2022-09-28T19:11:09.012Z,98462.39
2022-09-28T19:13:41.788Z,98463.98
2022-09-28T19:16:17.053Z,98459.65
2022-09-28T19:18:50.790Z,98456.16
2022-09-28T19:21:22.756Z,98448.19
2022-09-28T19:23:55.487Z,98443.40
2022-09-28T19:26:28.948Z,98439.83
2022-09-28T19:29:02.941Z,98431.64
2022-09-28T19:31:35.870Z,98416.00
2022-09-28T19:34:11.786Z,98406.48
2022-09-28T19:36:46.766Z,98412.55
2022-09-28T19:39:19.360Z,98410.19
2022-09-28T19:41:52.496Z,98409.98
2022-09-28T19:44:26.982Z,98411.36
2022-09-28T19:47:06.744Z,98410.02
2022-09-28T19:49:41.826Z,98411.70
2022-09-28T19:52:17.179Z,98404.86
2022-09-28T19:54:56.968Z,98403.04
2022-09-28T19:57:31.081Z,98404.56
2022-09-28T20:00:04.178Z,98408.38
2022-09-28T20:02:41.554Z,98406.69
2022-09-28T20:05:13.566Z,98411.98
2022-09-28T20:07:46.954Z,98410.70
2022-09-28T20:10:18.961Z,98413.59
2022-09-28T20:12:52.347Z,98419.90
2022-09-28T20:15:24.173Z,98417.90
2022-09-28T20:17:56.190Z,98424.05
2022-09-28T20:20:28.334Z,98423.25
2022-09-28T20:23:00.864Z,98419.01
2022-09-28T20:25:33.059Z,98418.92
2022-09-28T20:28:05.975Z,98422.38
2022-09-28T20:30:39.684Z,98421.43
2022-09-28T20:33:15.709Z,98420.73
2022-09-28T20:35:50.864Z,98415.04
2022-09-28T20:38:23.836Z,98411.18
2022-09-28T20:40:59.930Z,98411.23
2022-09-28T20:43:34.609Z,98409.88
2022-09-28T20:46:07.945Z,98408.26
2022-09-28T20:48:40.199Z,98407.84
2022-09-28T20:51:15.420Z,98404.67
2022-09-28T20:53:51.444Z,98401.14
2022-09-28T20:56:25.295Z,98407.23
2022-09-28T20:58:57.729Z,98407.80
2022-09-28T21:01:31.948Z,98410.49
2022-09-28T21:04:06.295Z,98413.13
2022-09-28T21:06:41.114Z,98411.61
2022-09-28T21:09:14.277Z,98413.86
2022-09-28T21:11:46.939Z,98415.04
2022-09-28T21:14:18.942Z,98410.66
2022-09-28T21:16:51.410Z,98410.26
2022-09-28T21:19:24.179Z,98412.60
2022-09-28T21:21:56.145Z,98411.98
2022-09-28T21:24:28.465Z,98415.21
2022-09-28T21:27:00.449Z,98412.33
2022-09-28T21:29:32.868Z,98414.90
2022-09-28T21:32:06.094Z,98416.71
2022-09-28T21:34:38.025Z,98413.16
2022-09-28T21:37:10.198Z,98411.88
2022-09-28T21:39:42.076Z,98410.07
2022-09-28T21:42:14.015Z,98415.05
2022-09-28T21:44:46.000Z,98409.55
2022-09-28T21:47:17.786Z,98409.89
2022-09-28T21:49:49.566Z,98416.35
2022-09-28T21:52:21.402Z,98425.27
2022-09-28T21:54:53.535Z,98431.23
2022-09-28T21:57:25.524Z,98430.71
2022-09-28T21:59:57.494Z,98434.29
2022-09-28T22:02:29.883Z,98432.04
2022-09-28T22:05:01.749Z,98435.48
2022-09-28T22:07:34.046Z,98440.37
2022-09-28T22:10:06.405Z,98443.41
2022-09-28T22:12:38.622Z,98444.66
2022-09-28T22:15:12.621Z,98444.71
2022-09-28T22:17:44.671Z,98447.69
2022-09-28T22:20:16.750Z,98455.73
2022-09-28T22:22:53.097Z,98462.58
2022-09-28T22:25:25.346Z,98464.60
2022-09-28T22:27:57.344Z,98466.59
2022-09-28T22:30:29.371Z,98461.13
2022-09-28T22:33:01.128Z,98462.48
2022-09-28T22:35:32.947Z,98461.10
2022-09-28T22:38:05.663Z,98459.67
2022-09-28T22:40:38.298Z,98456.86
2022-09-28T22:43:10.384Z,98459.09
2022-09-28T22:45:42.267Z,98455.96
2022-09-28T22:48:14.284Z,98456.95
2022-09-28T22:50:52.550Z,98465.35
2022-09-28T22:53:24.464Z,98461.83
2022-09-28T22:55:57.427Z,98464.38
2022-09-28T22:58:29.686Z,98465.60
2022-09-28T23:01:08.292Z,98465.04
2022-09-28T23:12:05.895Z,98465.96
2022-09-28T23:14:39.289Z,98460.46
2022-09-28T23:17:11.448Z,98461.64
2022-09-28T23:19:43.963Z,98465.06
2022-09-28T23:22:16.334Z,98470.77
2022-09-28T23:24:48.833Z,98476.35
2022-09-28T23:27:21.217Z,98479.52
2022-09-28T23:29:54.508Z,98484.02
2022-09-28T23:32:31.743Z,98473.75
2022-09-28T23:35:04.341Z,98467.61
2022-09-28T23:37:37.769Z,98477.91
2022-09-28T23:40:11.528Z,98487.37
2022-09-28T23:42:43.828Z,98486.73
2022-09-28T23:45:17.211Z,98491.25
2022-09-28T23:47:49.671Z,98501.80
2022-09-28T23:50:21.774Z,98506.08
2022-09-28T23:52:54.730Z,98508.09
2022-09-28T23:55:27.135Z,98499.36
2022-09-28T23:57:59.501Z,98498.66
